Belcher, Louisiana
Current Conditions -  °F | °C
As of 6:53 AM on Wednesday 22 Oct 2014 (Local Time) from KDTN Reporting Station
Clear Clear  
Wind Chill: 55°   Ceiling: Unl
Heat Index: 55°   Visibility: 7mi
Dew Point: 54°   Wind: 0mph
Humidity: 96%   Direction: NA
Pressure: 30.12"   Gusts: NA
Location:  32.75°N, 93.83°W
Report Text: KDTN 221153Z AUTO 00000KT 7SM CLR 13/12 A3012 RMK AO2 SLP199 T01280122 10161 20128 53016
Loading
Personal Weather Stations






























Interactive Weather Map
Tropical Storm Tracking
New forecast layout! Learn more

10-Day Weather Forecast

Advertisements
Track Severe Weather on mobile